sensor_id;sensor_type;location;lat;lon;timestamp;P1;durP1;ratioP1;P2;durP2;ratioP2
3997;SDS011;61314;53.444;9.902;2023-06-01T00:02:24;20.47;;;9.77;;
3997;SDS011;61314;53.444;9.902;2023-06-01T00:04:51;18.53;;;9.97;;
3997;SDS011;61314;53.444;9.902;2023-06-01T00:07:18;22.03;;;9.20;;
3997;SDS011;61314;53.444;9.902;2023-06-01T00:09:45;19.50;;;8.83;;
3997;SDS011;61314;53.444;9.902;2023-06-01T00:12:12;19.40;;;8.90;;
3997;SDS011;61314;53.444;9.902;2023-06-01T00:14:39;18.43;;;8.07;;
3997;SDS011;61314;53.444;9.902;2023-06-01T00:17:06;19.27;;;9.07;;
3997;SDS011;61314;53.444;9.902;2023-06-01T00:19:33;21.43;;;8.63;;
3997;SDS011;61314;53.444;9.902;2023-06-01T00:22:00;20.27;;;8.40;;
3997;SDS011;61314;53.444;9.902;2023-06-01T00:24:28;15.10;;;9.40;;
3997;SDS011;61314;53.444;9.902;2023-06-01T00:26:55;21.30;;;8.73;;
3997;SDS011;61314;53.444;9.902;2023-06-01T00:29:22;19.57;;;9.30;;
3997;SDS011;61314;53.444;9.902;2023-06-01T00:31:49;12.70;;;7.10;;
3997;SDS011;61314;53.444;9.902;2023-06-01T00:34:16;18.67;;;8.30;;
3997;SDS011;61314;53.444;9.902;2023-06-01T00:36:43;15.33;;;8.03;;
3997;SDS011;61314;53.444;9.902;2023-06-01T00:39:10;11.80;;;7.37;;
3997;SDS011;61314;53.444;9.902;2023-06-01T00:41:37;13.73;;;7.00;;
3997;SDS011;61314;53.444;9.902;2023-06-01T00:44:04;18.17;;;6.70;;
3997;SDS011;61314;53.444;9.902;2023-06-01T00:46:32;15.03;;;6.53;;
3997;SDS011;61314;53.444;9.902;2023-06-01T00:48:59;12.63;;;6.60;;
3997;SDS011;61314;53.444;9.902;2023-06-01T00:51:26;15.53;;;7.10;;
3997;SDS011;61314;53.444;9.902;2023-06-01T00:53:53;14.27;;;7.37;;
3997;SDS011;61314;53.444;9.902;2023-06-01T00:56:20;17.57;;;6.37;;
3997;SDS011;61314;53.444;9.902;2023-06-01T00:58:48;13.93;;;7.13;;
3997;SDS011;61314;53.444;9.902;2023-06-01T01:01:15;10.67;;;6.20;;
3997;SDS011;61314;53.444;9.902;2023-06-01T01:03:49;17.03;;;5.90;;
3997;SDS011;61314;53.444;9.902;2023-06-01T01:06:27;16.13;;;5.80;;
3997;SDS011;61314;53.444;9.902;2023-06-01T01:09:02;12.53;;;5.40;;
3997;SDS011;61314;53.444;9.902;2023-06-01T01:11:34;17.53;;;7.10;;
3997;SDS011;61314;53.444;9.902;2023-06-01T01:14:07;18.03;;;5.70;;
3997;SDS011;61314;53.444;9.902;2023-06-01T01:16:49;13.23;;;5.83;;
3997;SDS011;61314;53.444;9.902;2023-06-01T01:19:29;9.50;;;5.80;;
3997;SDS011;61314;53.444;9.902;2023-06-01T01:22:07;17.40;;;5.90;;
3997;SDS011;61314;53.444;9.902;2023-06-01T01:24:48;10.33;;;5.27;;
3997;SDS011;61314;53.444;9.902;2023-06-01T01:27:20;18.17;;;6.03;;
3997;SDS011;61314;53.444;9.902;2023-06-01T01:29:53;9.60;;;5.50;;
3997;SDS011;61314;53.444;9.902;2023-06-01T01:32:22;15.03;;;5.90;;
3997;SDS011;61314;53.444;9.902;2023-06-01T01:34:50;13.90;;;5.90;;
3997;SDS011;61314;53.444;9.902;2023-06-01T01:37:18;16.53;;;6.57;;
3997;SDS011;61314;53.444;9.902;2023-06-01T01:39:46;23.20;;;6.50;;
3997;SDS011;61314;53.444;9.902;2023-06-01T01:42:13;15.20;;;7.00;;
3997;SDS011;61314;53.444;9.902;2023-06-01T01:44:40;13.70;;;6.07;;
3997;SDS011;61314;53.444;9.902;2023-06-01T01:47:09;10.80;;;6.00;;
3997;SDS011;61314;53.444;9.902;2023-06-01T01:49:41;16.00;;;6.50;;
3997;SDS011;61314;53.444;9.902;2023-06-01T01:52:18;15.53;;;6.10;;
3997;SDS011;61314;53.444;9.902;2023-06-01T01:54:49;13.20;;;5.83;;
3997;SDS011;61314;53.444;9.902;2023-06-01T01:57:17;12.80;;;6.17;;
3997;SDS011;61314;53.444;9.902;2023-06-01T01:59:47;13.93;;;6.10;;
3997;SDS011;61314;53.444;9.902;2023-06-01T02:02:14;11.27;;;5.27;;
3997;SDS011;61314;53.444;9.902;2023-06-01T02:04:42;10.37;;;5.77;;
3997;SDS011;61314;53.444;9.902;2023-06-01T02:07:09;10.83;;;5.50;;
3997;SDS011;61314;53.444;9.902;2023-06-01T02:09:37;16.23;;;6.20;;
3997;SDS011;61314;53.444;9.902;2023-06-01T02:12:04;12.77;;;6.10;;
3997;SDS011;61314;53.444;9.902;2023-06-01T02:14:32;18.83;;;6.07;;
3997;SDS011;61314;53.444;9.902;2023-06-01T02:16:59;15.37;;;6.60;;
3997;SDS011;61314;53.444;9.902;2023-06-01T02:19:27;15.57;;;6.47;;
3997;SDS011;61314;53.444;9.902;2023-06-01T02:21:54;11.57;;;5.80;;
3997;SDS011;61314;53.444;9.902;2023-06-01T02:24:21;16.83;;;6.60;;
3997;SDS011;61314;53.444;9.902;2023-06-01T02:26:48;14.70;;;5.97;;
3997;SDS011;61314;53.444;9.902;2023-06-01T02:29:18;14.07;;;5.93;;
3997;SDS011;61314;53.444;9.902;2023-06-01T02:31:51;13.13;;;6.23;;
3997;SDS011;61314;53.444;9.902;2023-06-01T02:34:19;11.07;;;5.80;;
3997;SDS011;61314;53.444;9.902;2023-06-01T02:36:46;11.53;;;6.37;;
3997;SDS011;61314;53.444;9.902;2023-06-01T02:39:14;12.23;;;6.30;;
3997;SDS011;61314;53.444;9.902;2023-06-01T02:41:42;18.87;;;6.50;;
3997;SDS011;61314;53.444;9.902;2023-06-01T02:44:09;17.70;;;6.17;;
3997;SDS011;61314;53.444;9.902;2023-06-01T02:46:36;17.07;;;6.70;;
3997;SDS011;61314;53.444;9.902;2023-06-01T02:49:03;21.83;;;6.67;;
3997;SDS011;61314;53.444;9.902;2023-06-01T02:51:31;21.30;;;5.97;;
3997;SDS011;61314;53.444;9.902;2023-06-01T02:53:59;22.83;;;7.20;;
3997;SDS011;61314;53.444;9.902;2023-06-01T02:56:26;18.03;;;6.20;;
3997;SDS011;61314;53.444;9.902;2023-06-01T02:58:53;14.13;;;5.93;;
3997;SDS011;61314;53.444;9.902;2023-06-01T03:01:20;14.20;;;5.77;;
3997;SDS011;61314;53.444;9.902;2023-06-01T03:03:48;8.67;;;6.00;;
3997;SDS011;61314;53.444;9.902;2023-06-01T03:06:18;16.23;;;6.10;;
3997;SDS011;61314;53.444;9.902;2023-06-01T03:08:47;11.30;;;6.00;;
3997;SDS011;61314;53.444;9.902;2023-06-01T03:11:14;11.67;;;5.50;;
3997;SDS011;61314;53.444;9.902;2023-06-01T03:13:41;13.80;;;6.57;;
3997;SDS011;61314;53.444;9.902;2023-06-01T03:16:08;20.20;;;7.13;;
3997;SDS011;61314;53.444;9.902;2023-06-01T03:18:36;24.30;;;5.40;;
3997;SDS011;61314;53.444;9.902;2023-06-01T03:21:04;16.70;;;5.50;;
3997;SDS011;61314;53.444;9.902;2023-06-01T03:23:31;19.37;;;5.63;;
3997;SDS011;61314;53.444;9.902;2023-06-01T03:25:58;19.67;;;5.90;;
3997;SDS011;61314;53.444;9.902;2023-06-01T03:28:25;12.90;;;5.93;;
3997;SDS011;61314;53.444;9.902;2023-06-01T03:30:52;16.33;;;6.00;;
3997;SDS011;61314;53.444;9.902;2023-06-01T03:33:19;16.10;;;5.60;;
3997;SDS011;61314;53.444;9.902;2023-06-01T03:35:46;20.07;;;5.57;;
3997;SDS011;61314;53.444;9.902;2023-06-01T03:38:15;10.67;;;5.37;;
3997;SDS011;61314;53.444;9.902;2023-06-01T03:40:42;14.93;;;4.60;;
3997;SDS011;61314;53.444;9.902;2023-06-01T03:43:09;12.03;;;4.57;;
3997;SDS011;61314;53.444;9.902;2023-06-01T03:45:37;15.47;;;4.67;;
3997;SDS011;61314;53.444;9.902;2023-06-01T03:48:04;13.03;;;5.73;;
3997;SDS011;61314;53.444;9.902;2023-06-01T03:50:32;18.13;;;5.20;;
3997;SDS011;61314;53.444;9.902;2023-06-01T03:52:59;13.80;;;5.57;;
3997;SDS011;61314;53.444;9.902;2023-06-01T03:55:26;12.57;;;5.17;;
3997;SDS011;61314;53.444;9.902;2023-06-01T03:57:53;10.70;;;5.57;;
3997;SDS011;61314;53.444;9.902;2023-06-01T04:00:20;12.33;;;5.13;;
3997;SDS011;61314;53.444;9.902;2023-06-01T04:02:56;13.57;;;5.97;;
3997;SDS011;61314;53.444;9.902;2023-06-01T04:05:25;14.73;;;5.40;;
3997;SDS011;61314;53.444;9.902;2023-06-01T04:07:53;13.70;;;6.70;;
3997;SDS011;61314;53.444;9.902;2023-06-01T04:10:20;15.03;;;5.20;;
3997;SDS011;61314;53.444;9.902;2023-06-01T04:12:48;16.30;;;5.67;;
3997;SDS011;61314;53.444;9.902;2023-06-01T04:15:16;13.67;;;5.80;;
3997;SDS011;61314;53.444;9.902;2023-06-01T04:17:44;13.80;;;4.77;;
3997;SDS011;61314;53.444;9.902;2023-06-01T04:20:12;13.03;;;5.80;;
3997;SDS011;61314;53.444;9.902;2023-06-01T04:22:40;11.60;;;6.30;;
3997;SDS011;61314;53.444;9.902;2023-06-01T04:25:10;16.07;;;6.53;;
3997;SDS011;61314;53.444;9.902;2023-06-01T04:27:42;25.23;;;6.53;;
3997;SDS011;61314;53.444;9.902;2023-06-01T04:30:11;15.57;;;5.37;;
3997;SDS011;61314;53.444;9.902;2023-06-01T04:32:39;21.53;;;6.47;;
3997;SDS011;61314;53.444;9.902;2023-06-01T04:35:10;15.40;;;6.30;;
3997;SDS011;61314;53.444;9.902;2023-06-01T04:37:38;18.87;;;6.40;;
3997;SDS011;61314;53.444;9.902;2023-06-01T04:40:05;23.10;;;6.73;;
3997;SDS011;61314;53.444;9.902;2023-06-01T04:42:37;23.67;;;6.90;;
3997;SDS011;61314;53.444;9.902;2023-06-01T04:45:05;19.53;;;7.40;;
3997;SDS011;61314;53.444;9.902;2023-06-01T04:47:35;18.50;;;6.23;;
3997;SDS011;61314;53.444;9.902;2023-06-01T04:50:06;16.23;;;6.83;;
3997;SDS011;61314;53.444;9.902;2023-06-01T04:52:37;13.60;;;6.27;;
3997;SDS011;61314;53.444;9.902;2023-06-01T04:55:05;16.90;;;6.83;;
3997;SDS011;61314;53.444;9.902;2023-06-01T04:57:33;16.37;;;6.30;;
3997;SDS011;61314;53.444;9.902;2023-06-01T05:00:05;23.30;;;6.13;;
3997;SDS011;61314;53.444;9.902;2023-06-01T05:02:38;14.20;;;5.63;;
3997;SDS011;61314;53.444;9.902;2023-06-01T05:05:05;14.70;;;5.33;;
3997;SDS011;61314;53.444;9.902;2023-06-01T05:07:33;20.00;;;5.97;;
3997;SDS011;61314;53.444;9.902;2023-06-01T05:10:03;16.77;;;6.80;;
3997;SDS011;61314;53.444;9.902;2023-06-01T05:12:32;15.63;;;5.93;;
3997;SDS011;61314;53.444;9.902;2023-06-01T05:15:00;13.17;;;5.00;;
3997;SDS011;61314;53.444;9.902;2023-06-01T05:17:27;15.33;;;5.87;;
3997;SDS011;61314;53.444;9.902;2023-06-01T05:19:54;19.40;;;5.70;;
3997;SDS011;61314;53.444;9.902;2023-06-01T05:22:23;17.10;;;6.93;;
3997;SDS011;61314;53.444;9.902;2023-06-01T05:24:50;12.10;;;6.53;;
3997;SDS011;61314;53.444;9.902;2023-06-01T05:27:17;20.10;;;6.20;;
3997;SDS011;61314;53.444;9.902;2023-06-01T05:29:44;15.80;;;6.50;;
3997;SDS011;61314;53.444;9.902;2023-06-01T05:32:11;11.80;;;6.00;;
3997;SDS011;61314;53.444;9.902;2023-06-01T05:34:38;18.50;;;6.47;;
3997;SDS011;61314;53.444;9.902;2023-06-01T05:37:06;24.27;;;6.50;;
3997;SDS011;61314;53.444;9.902;2023-06-01T05:39:32;17.93;;;6.43;;
3997;SDS011;61314;53.444;9.902;2023-06-01T05:41:59;8.03;;;4.97;;
3997;SDS011;61314;53.444;9.902;2023-06-01T05:44:27;21.03;;;5.77;;
3997;SDS011;61314;53.444;9.902;2023-06-01T05:46:54;22.73;;;6.00;;
3997;SDS011;61314;53.444;9.902;2023-06-01T05:49:21;26.90;;;6.53;;
3997;SDS011;61314;53.444;9.902;2023-06-01T05:51:49;15.33;;;6.00;;
3997;SDS011;61314;53.444;9.902;2023-06-01T05:54:17;17.83;;;6.00;;
3997;SDS011;61314;53.444;9.902;2023-06-01T05:56:44;10.20;;;4.67;;
3997;SDS011;61314;53.444;9.902;2023-06-01T05:59:11;17.17;;;5.40;;
3997;SDS011;61314;53.444;9.902;2023-06-01T06:01:38;16.87;;;6.00;;
3997;SDS011;61314;53.444;9.902;2023-06-01T06:04:05;19.30;;;5.47;;
3997;SDS011;61314;53.444;9.902;2023-06-01T06:06:32;16.80;;;6.00;;
3997;SDS011;61314;53.444;9.902;2023-06-01T06:08:59;13.10;;;5.23;;
3997;SDS011;61314;53.444;9.902;2023-06-01T06:11:26;12.10;;;5.27;;
3997;SDS011;61314;53.444;9.902;2023-06-01T06:13:53;13.40;;;5.43;;
3997;SDS011;61314;53.444;9.902;2023-06-01T06:16:20;12.33;;;5.30;;
3997;SDS011;61314;53.444;9.902;2023-06-01T06:18:48;15.07;;;5.87;;
3997;SDS011;61314;53.444;9.902;2023-06-01T06:21:15;17.33;;;5.60;;
3997;SDS011;61314;53.444;9.902;2023-06-01T06:23:44;13.53;;;4.67;;
3997;SDS011;61314;53.444;9.902;2023-06-01T06:26:11;10.23;;;4.80;;
3997;SDS011;61314;53.444;9.902;2023-06-01T06:28:38;17.80;;;5.40;;
3997;SDS011;61314;53.444;9.902;2023-06-01T06:31:05;37.33;;;7.03;;
3997;SDS011;61314;53.444;9.902;2023-06-01T06:33:33;18.83;;;5.03;;
3997;SDS011;61314;53.444;9.902;2023-06-01T06:35:59;15.47;;;5.23;;
3997;SDS011;61314;53.444;9.902;2023-06-01T06:38:27;17.90;;;5.40;;
3997;SDS011;61314;53.444;9.902;2023-06-01T06:40:54;9.73;;;5.00;;
3997;SDS011;61314;53.444;9.902;2023-06-01T06:43:23;18.63;;;5.40;;
3997;SDS011;61314;53.444;9.902;2023-06-01T06:45:50;11.93;;;5.03;;
3997;SDS011;61314;53.444;9.902;2023-06-01T06:48:17;13.67;;;5.00;;
3997;SDS011;61314;53.444;9.902;2023-06-01T06:50:45;19.77;;;4.57;;
3997;SDS011;61314;53.444;9.902;2023-06-01T06:53:12;11.87;;;4.93;;
3997;SDS011;61314;53.444;9.902;2023-06-01T06:55:39;9.20;;;5.00;;
3997;SDS011;61314;53.444;9.902;2023-06-01T06:58:09;10.73;;;4.30;;
3997;SDS011;61314;53.444;9.902;2023-06-01T07:00:37;17.43;;;5.00;;
3997;SDS011;61314;53.444;9.902;2023-06-01T07:03:04;18.00;;;5.50;;
3997;SDS011;61314;53.444;9.902;2023-06-01T07:05:31;16.00;;;4.73;;
3997;SDS011;61314;53.444;9.902;2023-06-01T07:07:58;12.87;;;5.33;;
3997;SDS011;61314;53.444;9.902;2023-06-01T07:10:25;13.70;;;5.03;;
3997;SDS011;61314;53.444;9.902;2023-06-01T07:12:53;7.37;;;4.00;;
3997;SDS011;61314;53.444;9.902;2023-06-01T07:15:20;19.73;;;4.60;;
3997;SDS011;61314;53.444;9.902;2023-06-01T07:17:47;11.73;;;4.60;;
3997;SDS011;61314;53.444;9.902;2023-06-01T07:20:15;12.83;;;4.50;;
3997;SDS011;61314;53.444;9.902;2023-06-01T07:22:41;15.50;;;6.17;;
3997;SDS011;61314;53.444;9.902;2023-06-01T07:25:09;23.33;;;5.47;;
3997;SDS011;61314;53.444;9.902;2023-06-01T07:27:39;11.03;;;3.63;;
3997;SDS011;61314;53.444;9.902;2023-06-01T07:30:09;18.30;;;4.80;;
3997;SDS011;61314;53.444;9.902;2023-06-01T07:32:38;15.33;;;3.93;;
3997;SDS011;61314;53.444;9.902;2023-06-01T07:35:05;12.43;;;4.57;;
3997;SDS011;61314;53.444;9.902;2023-06-01T07:37:33;17.70;;;4.50;;
3997;SDS011;61314;53.444;9.902;2023-06-01T07:40:01;10.10;;;4.10;;
3997;SDS011;61314;53.444;9.902;2023-06-01T07:42:32;9.13;;;3.93;;
3997;SDS011;61314;53.444;9.902;2023-06-01T07:44:59;10.13;;;4.10;;
3997;SDS011;61314;53.444;9.902;2023-06-01T07:47:26;16.37;;;5.20;;
3997;SDS011;61314;53.444;9.902;2023-06-01T07:49:53;17.90;;;5.07;;
3997;SDS011;61314;53.444;9.902;2023-06-01T07:52:20;11.07;;;4.10;;
3997;SDS011;61314;53.444;9.902;2023-06-01T07:54:47;16.13;;;5.20;;
3997;SDS011;61314;53.444;9.902;2023-06-01T07:57:15;15.90;;;5.80;;
3997;SDS011;61314;53.444;9.902;2023-06-01T07:59:43;16.30;;;5.20;;
3997;SDS011;61314;53.444;9.902;2023-06-01T08:02:10;10.57;;;4.60;;
3997;SDS011;61314;53.444;9.902;2023-06-01T08:04:37;13.43;;;4.63;;
3997;SDS011;61314;53.444;9.902;2023-06-01T08:07:05;10.83;;;4.30;;
3997;SDS011;61314;53.444;9.902;2023-06-01T08:09:33;14.27;;;4.13;;
3997;SDS011;61314;53.444;9.902;2023-06-01T08:12:00;16.20;;;4.33;;
3997;SDS011;61314;53.444;9.902;2023-06-01T08:14:27;18.47;;;4.53;;
3997;SDS011;61314;53.444;9.902;2023-06-01T08:16:55;12.30;;;4.33;;
3997;SDS011;61314;53.444;9.902;2023-06-01T08:19:23;18.57;;;4.40;;
3997;SDS011;61314;53.444;9.902;2023-06-01T08:21:50;10.90;;;4.63;;
3997;SDS011;61314;53.444;9.902;2023-06-01T08:24:18;17.10;;;4.00;;
3997;SDS011;61314;53.444;9.902;2023-06-01T08:26:54;10.37;;;3.30;;
3997;SDS011;61314;53.444;9.902;2023-06-01T08:29:22;8.10;;;3.80;;
3997;SDS011;61314;53.444;9.902;2023-06-01T08:32:07;9.73;;;3.43;;
3997;SDS011;61314;53.444;9.902;2023-06-01T08:34:34;13.13;;;3.93;;
3997;SDS011;61314;53.444;9.902;2023-06-01T08:37:01;9.40;;;3.93;;
3997;SDS011;61314;53.444;9.902;2023-06-01T08:39:28;11.10;;;4.07;;
3997;SDS011;61314;53.444;9.902;2023-06-01T08:42:15;10.03;;;3.50;;
3997;SDS011;61314;53.444;9.902;2023-06-01T08:44:46;9.30;;;3.23;;
3997;SDS011;61314;53.444;9.902;2023-06-01T08:47:13;7.73;;;2.90;;
3997;SDS011;61314;53.444;9.902;2023-06-01T08:49:41;7.43;;;3.20;;
3997;SDS011;61314;53.444;9.902;2023-06-01T08:52:11;14.80;;;3.20;;
3997;SDS011;61314;53.444;9.902;2023-06-01T08:54:38;11.17;;;3.03;;
3997;SDS011;61314;53.444;9.902;2023-06-01T08:57:06;10.40;;;2.97;;
3997;SDS011;61314;53.444;9.902;2023-06-01T08:59:34;15.57;;;3.03;;
3997;SDS011;61314;53.444;9.902;2023-06-01T09:02:01;10.33;;;2.87;;
3997;SDS011;61314;53.444;9.902;2023-06-01T09:04:29;6.43;;;3.40;;
3997;SDS011;61314;53.444;9.902;2023-06-01T09:07:01;7.13;;;2.53;;
3997;SDS011;61314;53.444;9.902;2023-06-01T09:09:29;7.43;;;2.60;;
3997;SDS011;61314;53.444;9.902;2023-06-01T09:14:42;6.10;;;2.43;;
3997;SDS011;61314;53.444;9.902;2023-06-01T09:17:13;8.43;;;2.90;;
3997;SDS011;61314;53.444;9.902;2023-06-01T09:19:41;10.50;;;3.33;;
3997;SDS011;61314;53.444;9.902;2023-06-01T09:22:10;9.10;;;2.80;;
3997;SDS011;61314;53.444;9.902;2023-06-01T09:24:39;9.73;;;3.47;;
3997;SDS011;61314;53.444;9.902;2023-06-01T09:27:09;6.07;;;2.47;;
3997;SDS011;61314;53.444;9.902;2023-06-01T09:29:36;13.03;;;3.80;;
3997;SDS011;61314;53.444;9.902;2023-06-01T09:32:03;9.40;;;2.97;;
3997;SDS011;61314;53.444;9.902;2023-06-01T09:34:30;8.40;;;3.37;;
3997;SDS011;61314;53.444;9.902;2023-06-01T09:36:58;13.73;;;3.87;;
3997;SDS011;61314;53.444;9.902;2023-06-01T09:39:32;6.87;;;3.13;;
3997;SDS011;61314;53.444;9.902;2023-06-01T09:42:00;10.47;;;3.40;;
3997;SDS011;61314;53.444;9.902;2023-06-01T09:44:33;12.10;;;3.53;;
3997;SDS011;61314;53.444;9.902;2023-06-01T09:47:01;6.80;;;2.87;;
3997;SDS011;61314;53.444;9.902;2023-06-01T09:49:39;8.37;;;3.10;;
3997;SDS011;61314;53.444;9.902;2023-06-01T09:54:40;8.40;;;3.70;;
3997;SDS011;61314;53.444;9.902;2023-06-01T09:57:08;11.57;;;3.70;;
3997;SDS011;61314;53.444;9.902;2023-06-01T09:59:44;13.27;;;3.03;;
3997;SDS011;61314;53.444;9.902;2023-06-01T10:02:13;9.80;;;3.37;;
3997;SDS011;61314;53.444;9.902;2023-06-01T10:04:41;9.97;;;3.87;;
3997;SDS011;61314;53.444;9.902;2023-06-01T10:07:09;11.17;;;3.97;;
3997;SDS011;61314;53.444;9.902;2023-06-01T10:09:37;18.00;;;4.10;;
3997;SDS011;61314;53.444;9.902;2023-06-01T10:12:05;17.70;;;3.67;;
3997;SDS011;61314;53.444;9.902;2023-06-01T10:14:33;8.23;;;2.77;;
3997;SDS011;61314;53.444;9.902;2023-06-01T10:17:00;7.83;;;3.93;;
3997;SDS011;61314;53.444;9.902;2023-06-01T10:19:27;11.67;;;3.27;;
3997;SDS011;61314;53.444;9.902;2023-06-01T10:21:56;6.47;;;3.10;;
3997;SDS011;61314;53.444;9.902;2023-06-01T10:24:23;9.50;;;3.00;;
3997;SDS011;61314;53.444;9.902;2023-06-01T10:29:37;7.53;;;2.83;;
3997;SDS011;61314;53.444;9.902;2023-06-01T10:32:05;17.70;;;4.30;;
3997;SDS011;61314;53.444;9.902;2023-06-01T10:34:52;12.67;;;3.60;;
3997;SDS011;61314;53.444;9.902;2023-06-01T10:37:19;5.60;;;3.30;;
3997;SDS011;61314;53.444;9.902;2023-06-01T10:39:46;9.90;;;3.37;;
3997;SDS011;61314;53.444;9.902;2023-06-01T10:52:24;15.10;;;3.30;;
3997;SDS011;61314;53.444;9.902;2023-06-01T10:54:54;14.47;;;4.30;;
3997;SDS011;61314;53.444;9.902;2023-06-01T11:00:08;9.30;;;3.30;;
3997;SDS011;61314;53.444;9.902;2023-06-01T11:02:42;10.40;;;3.20;;
3997;SDS011;61314;53.444;9.902;2023-06-01T11:07:54;9.57;;;4.27;;
3997;SDS011;61314;53.444;9.902;2023-06-01T11:13:11;7.73;;;3.20;;
3997;SDS011;61314;53.444;9.902;2023-06-01T11:15:39;9.40;;;3.10;;
3997;SDS011;61314;53.444;9.902;2023-06-01T11:20:52;11.97;;;3.67;;
3997;SDS011;61314;53.444;9.902;2023-06-01T11:23:20;8.37;;;3.10;;
3997;SDS011;61314;53.444;9.902;2023-06-01T11:25:48;6.13;;;3.20;;
3997;SDS011;61314;53.444;9.902;2023-06-01T11:28:19;10.40;;;3.40;;
3997;SDS011;61314;53.444;9.902;2023-06-01T11:30:46;15.00;;;3.63;;
3997;SDS011;61314;53.444;9.902;2023-06-01T11:33:13;10.93;;;3.50;;
3997;SDS011;61314;53.444;9.902;2023-06-01T11:35:41;11.60;;;2.80;;
3997;SDS011;61314;53.444;9.902;2023-06-01T11:38:08;11.00;;;3.80;;
3997;SDS011;61314;53.444;9.902;2023-06-01T11:40:35;12.77;;;3.73;;
3997;SDS011;61314;53.444;9.902;2023-06-01T11:43:05;8.10;;;2.90;;
3997;SDS011;61314;53.444;9.902;2023-06-01T11:45:32;7.30;;;3.13;;
3997;SDS011;61314;53.444;9.902;2023-06-01T11:48:09;5.83;;;2.47;;
3997;SDS011;61314;53.444;9.902;2023-06-01T11:50:37;6.17;;;3.07;;
3997;SDS011;61314;53.444;9.902;2023-06-01T11:53:04;10.40;;;3.03;;
3997;SDS011;61314;53.444;9.902;2023-06-01T11:55:31;10.00;;;3.13;;
3997;SDS011;61314;53.444;9.902;2023-06-01T11:57:58;7.83;;;3.90;;
3997;SDS011;61314;53.444;9.902;2023-06-01T12:00:25;8.73;;;2.80;;
3997;SDS011;61314;53.444;9.902;2023-06-01T12:03:04;8.93;;;2.70;;
3997;SDS011;61314;53.444;9.902;2023-06-01T12:05:39;9.60;;;3.27;;
3997;SDS011;61314;53.444;9.902;2023-06-01T12:08:14;9.33;;;2.63;;
3997;SDS011;61314;53.444;9.902;2023-06-01T12:10:45;12.33;;;3.80;;
3997;SDS011;61314;53.444;9.902;2023-06-01T12:13:17;10.37;;;2.73;;
3997;SDS011;61314;53.444;9.902;2023-06-01T12:15:44;13.47;;;3.37;;
3997;SDS011;61314;53.444;9.902;2023-06-01T12:18:12;10.93;;;3.20;;
3997;SDS011;61314;53.444;9.902;2023-06-01T12:20:40;22.37;;;3.20;;
3997;SDS011;61314;53.444;9.902;2023-06-01T12:23:12;10.60;;;2.80;;
3997;SDS011;61314;53.444;9.902;2023-06-01T12:25:50;5.43;;;2.57;;
3997;SDS011;61314;53.444;9.902;2023-06-01T12:28:17;6.90;;;2.10;;
3997;SDS011;61314;53.444;9.902;2023-06-01T12:30:45;9.77;;;2.63;;
3997;SDS011;61314;53.444;9.902;2023-06-01T12:33:31;8.57;;;2.40;;
3997;SDS011;61314;53.444;9.902;2023-06-01T12:36:00;7.37;;;2.73;;
3997;SDS011;61314;53.444;9.902;2023-06-01T12:38:27;10.87;;;2.30;;
3997;SDS011;61314;53.444;9.902;2023-06-01T12:41:07;11.07;;;2.93;;
3997;SDS011;61314;53.444;9.902;2023-06-01T12:43:35;10.30;;;2.27;;
3997;SDS011;61314;53.444;9.902;2023-06-01T12:46:02;3.70;;;2.37;;
3997;SDS011;61314;53.444;9.902;2023-06-01T12:48:36;7.33;;;2.73;;
3997;SDS011;61314;53.444;9.902;2023-06-01T12:51:03;6.83;;;2.80;;
3997;SDS011;61314;53.444;9.902;2023-06-01T12:53:31;6.60;;;2.00;;
3997;SDS011;61314;53.444;9.902;2023-06-01T12:55:58;10.90;;;3.00;;
3997;SDS011;61314;53.444;9.902;2023-06-01T12:58:26;5.43;;;1.90;;
3997;SDS011;61314;53.444;9.902;2023-06-01T13:00:54;9.53;;;2.27;;
3997;SDS011;61314;53.444;9.902;2023-06-01T13:03:23;14.90;;;2.40;;
3997;SDS011;61314;53.444;9.902;2023-06-01T13:05:50;11.13;;;2.40;;
3997;SDS011;61314;53.444;9.902;2023-06-01T13:08:17;9.53;;;2.40;;
3997;SDS011;61314;53.444;9.902;2023-06-01T13:10:45;6.57;;;2.23;;
3997;SDS011;61314;53.444;9.902;2023-06-01T13:13:12;6.70;;;2.17;;
3997;SDS011;61314;53.444;9.902;2023-06-01T13:15:39;9.53;;;2.33;;
3997;SDS011;61314;53.444;9.902;2023-06-01T13:18:06;6.50;;;2.77;;
3997;SDS011;61314;53.444;9.902;2023-06-01T13:20:37;8.73;;;2.00;;
3997;SDS011;61314;53.444;9.902;2023-06-01T13:23:05;5.47;;;2.07;;
3997;SDS011;61314;53.444;9.902;2023-06-01T13:25:32;8.93;;;2.30;;
3997;SDS011;61314;53.444;9.902;2023-06-01T13:28:00;7.40;;;1.90;;
3997;SDS011;61314;53.444;9.902;2023-06-01T13:30:27;9.07;;;2.50;;
3997;SDS011;61314;53.444;9.902;2023-06-01T13:32:55;5.73;;;2.27;;
3997;SDS011;61314;53.444;9.902;2023-06-01T13:35:22;9.07;;;2.23;;
3997;SDS011;61314;53.444;9.902;2023-06-01T13:37:49;6.73;;;2.10;;
3997;SDS011;61314;53.444;9.902;2023-06-01T13:40:16;11.20;;;2.23;;
3997;SDS011;61314;53.444;9.902;2023-06-01T13:42:49;15.40;;;2.37;;
3997;SDS011;61314;53.444;9.902;2023-06-01T13:45:17;12.20;;;2.87;;
3997;SDS011;61314;53.444;9.902;2023-06-01T13:47:44;17.93;;;3.07;;
3997;SDS011;61314;53.444;9.902;2023-06-01T13:50:12;10.10;;;2.27;;
3997;SDS011;61314;53.444;9.902;2023-06-01T13:52:40;7.50;;;2.00;;
3997;SDS011;61314;53.444;9.902;2023-06-01T13:55:07;10.70;;;1.90;;
3997;SDS011;61314;53.444;9.902;2023-06-01T13:57:35;21.20;;;2.60;;
3997;SDS011;61314;53.444;9.902;2023-06-01T14:00:03;15.27;;;2.40;;
3997;SDS011;61314;53.444;9.902;2023-06-01T14:02:31;6.73;;;2.90;;
3997;SDS011;61314;53.444;9.902;2023-06-01T14:04:58;11.77;;;3.37;;
3997;SDS011;61314;53.444;9.902;2023-06-01T14:07:36;6.40;;;2.00;;
3997;SDS011;61314;53.444;9.902;2023-06-01T14:10:03;10.00;;;2.00;;
3997;SDS011;61314;53.444;9.902;2023-06-01T14:12:30;8.83;;;2.23;;
3997;SDS011;61314;53.444;9.902;2023-06-01T14:14:57;10.60;;;2.17;;
3997;SDS011;61314;53.444;9.902;2023-06-01T14:17:24;7.43;;;2.10;;
3997;SDS011;61314;53.444;9.902;2023-06-01T14:19:51;5.93;;;1.63;;
3997;SDS011;61314;53.444;9.902;2023-06-01T14:22:18;7.27;;;2.20;;
3997;SDS011;61314;53.444;9.902;2023-06-01T14:24:46;5.93;;;2.30;;
3997;SDS011;61314;53.444;9.902;2023-06-01T14:27:13;7.63;;;2.17;;
3997;SDS011;61314;53.444;9.902;2023-06-01T14:29:41;9.00;;;2.40;;
3997;SDS011;61314;53.444;9.902;2023-06-01T14:32:09;13.43;;;2.37;;
3997;SDS011;61314;53.444;9.902;2023-06-01T14:34:36;10.30;;;2.60;;
3997;SDS011;61314;53.444;9.902;2023-06-01T14:37:03;11.03;;;2.50;;
3997;SDS011;61314;53.444;9.902;2023-06-01T14:39:33;6.90;;;1.73;;
3997;SDS011;61314;53.444;9.902;2023-06-01T14:42:00;10.77;;;2.57;;
3997;SDS011;61314;53.444;9.902;2023-06-01T14:44:27;6.17;;;2.50;;
3997;SDS011;61314;53.444;9.902;2023-06-01T14:46:54;7.77;;;2.77;;
3997;SDS011;61314;53.444;9.902;2023-06-01T14:49:24;8.37;;;3.23;;
3997;SDS011;61314;53.444;9.902;2023-06-01T14:52:11;11.77;;;2.30;;
3997;SDS011;61314;53.444;9.902;2023-06-01T14:54:38;12.77;;;3.13;;
3997;SDS011;61314;53.444;9.902;2023-06-01T14:57:05;13.37;;;2.83;;
3997;SDS011;61314;53.444;9.902;2023-06-01T14:59:33;8.70;;;2.87;;
3997;SDS011;61314;53.444;9.902;2023-06-01T15:02:05;9.83;;;2.67;;
3997;SDS011;61314;53.444;9.902;2023-06-01T15:04:33;9.60;;;2.13;;
3997;SDS011;61314;53.444;9.902;2023-06-01T15:07:00;13.63;;;3.13;;
3997;SDS011;61314;53.444;9.902;2023-06-01T15:09:27;14.77;;;3.40;;
3997;SDS011;61314;53.444;9.902;2023-06-01T15:11:54;11.23;;;2.40;;
3997;SDS011;61314;53.444;9.902;2023-06-01T15:14:22;7.20;;;2.43;;
3997;SDS011;61314;53.444;9.902;2023-06-01T15:16:52;13.37;;;3.33;;
3997;SDS011;61314;53.444;9.902;2023-06-01T15:19:22;13.50;;;2.43;;
3997;SDS011;61314;53.444;9.902;2023-06-01T15:21:52;14.83;;;2.93;;
3997;SDS011;61314;53.444;9.902;2023-06-01T15:24:19;11.40;;;2.10;;
3997;SDS011;61314;53.444;9.902;2023-06-01T15:26:46;12.10;;;3.57;;
3997;SDS011;61314;53.444;9.902;2023-06-01T15:29:16;9.57;;;2.30;;